Paulding, Mississippi
Current Conditions -  °F | °C
As of 11:58 AM on Sunday 25 Jan 2015 (Local Time) from KMEI Reporting Station
Clear Clear  
Wind Chill: 60°   Ceiling: Unl
Heat Index: 60°   Visibility: 10mi
Dew Point: 37°   Wind: 17mph
Humidity: 42%   Direction: 220°SW
Pressure: 29.84"   Gusts: 28mph
Location:  32.03°N, 89.04°W
Report Text: KMEI 251758Z 22015G24KT 10SM CLR 16/03 A2984 RMK AO2 PK WND 20026/1727 PRESFR SLP103 T01560028 10156 20000 58038
Loading
Personal Weather Stations






























Interactive Weather Map New forecast layout! Learn more

10-Day Weather Forecast

Advertisements
Track Severe Weather on mobile